
Distance (Route):
Temperature : -14.9°C
Humidity : 48.1%
Pressure : 457.9hPa| Receiver | Frames | First received | Last received |
|---|---|---|---|
| AUTORXJP | 201 | 2026-09-01 09:40:13 | 2026-09-01 11:27:26 |
| Receiver | Date | Latitude | Longitude | Direction | Speed | Altitude | Climb | Temperature | Humidity | Pressure | Voltage | Killtimer | Uptime | BKT | XDATA |
|---|---|---|---|---|---|---|---|---|---|---|---|---|---|---|---|
| AUTORXJP | 2026-09-01 11:27:26 | 44.10418 | 6.74132 | 87° | 68km/h | 6561m | -15.3m/s | -14.9°C | 48.1% | 457.9hPa | 0V | 00:00:00 | 00:00:00 | 00:00:00 | |
| AUTORXJP | 2026-09-01 11:26:55 | 44.10368 | 6.73467 | 84° | 73km/h | 6996m | -16.9m/s | -17.8°C | 37.8% | 431.8hPa | 0V | 00:00:00 | 00:00:00 | 00:00:00 | |
| AUTORXJP | 2026-09-01 11:26:24 | 44.10278 | 6.72615 | 81° | 80km/h | 7528m | -17.5m/s | -21.9°C | 39.3% | 401.6hPa | 0V | 00:00:00 | 00:00:00 | 00:00:00 | |
| AUTORXJP | 2026-09-01 11:25:53 | 44.10142 | 6.71689 | 78° | 84km/h | 8079m | -19.4m/s | -26.4°C | 44.2% | 371.8hPa | 0V | 00:00:00 | 00:00:00 | 00:00:00 | |
| AUTORXJP | 2026-09-01 11:25:22 | 44.09979 | 6.70623 | 77° | 88km/h | 8717m | -17.8m/s | -31.8°C | 36.1% | 339.9hPa | 0V | 00:00:00 | 00:00:00 | 00:00:00 | |
| AUTORXJP | 2026-09-01 11:24:51 | 44.09833 | 6.69678 | 75° | 89km/h | 9270m | -18.2m/s | -35.5°C | 53.6% | 313.9hPa | 0V | 00:00:00 | 00:00:00 | 00:00:00 | |
| AUTORXJP | 2026-09-01 11:24:19 | 44.09729 | 6.68863 | 80° | 91km/h | 9632m | -9.6m/s | -38.5°C | 64.8% | 298.0hPa | 0V | 00:00:00 | 00:00:00 | 00:00:00 | |
| AUTORXJP | 2026-09-01 11:23:48 | 44.09585 | 6.67726 | 77° | 91km/h | 9993m | -10.7m/s | -41.7°C | 52.0% | 282.4hPa | 0V | 00:00:00 | 00:00:00 | 00:00:00 | |
| AUTORXJP | 2026-09-01 11:23:17 | 44.09475 | 6.66833 | 81° | 95km/h | 10278m | -11.3m/s | -44.2°C | 45.7% | 270.6hPa | 0V | 00:00:00 | 00:00:00 | 00:00:00 | |
| AUTORXJP | 2026-09-01 11:22:46 | 44.09333 | 6.65692 | 77° | 91km/h | 10656m | -11.2m/s | -47.1°C | 40.8% | 255.5hPa | 0V | 00:00:00 | 00:00:00 | 00:00:00 | |
| AUTORXJP | 2026-09-01 11:22:15 | 44.09218 | 6.64764 | 81° | 91km/h | 10977m | -11.1m/s | -49.3°C | 38.0% | 243.1hPa | 0V | 00:00:00 | 00:00:00 | 00:00:00 | |
| AUTORXJP | 2026-09-01 11:21:44 | 44.09110 | 6.63764 | 82° | 100km/h | 11366m | -15.0m/s | -51.6°C | 35.3% | 228.8hPa | 0V | 00:00:00 | 00:00:00 | 00:00:00 | |
| AUTORXJP | 2026-09-01 11:21:13 | 44.08916 | 6.62596 | 73° | 111km/h | 11962m | -22.1m/s | -55.1°C | 24.0% | 208.1hPa | 0V | 00:00:00 | 00:00:00 | 00:00:00 | |
| AUTORXJP | 2026-09-01 11:20:42 | 44.08680 | 6.61408 | 75° | 122km/h | 12580m | -20.0m/s | -57.7°C | 11.1% | 188.7hPa | 0V | 00:00:00 | 00:00:00 | 00:00:00 | |
| AUTORXJP | 2026-09-01 11:20:11 | 44.08486 | 6.60159 | 76° | 108km/h | 13251m | -23.1m/s | -56.9°C | 3.9% | 169.1hPa | 0V | 00:00:00 | 00:00:00 | 00:00:00 | |
| AUTORXJP | 2026-09-01 11:19:40 | 44.08297 | 6.59062 | 78° | 95km/h | 13987m | -24.8m/s | -56.9°C | 2.8% | 150.2hPa | 0V | 00:00:00 | 00:00:00 | 00:00:00 | |
| AUTORXJP | 2026-09-01 11:19:09 | 44.08157 | 6.58131 | 74° | 75km/h | 14814m | -27.4m/s | -57.7°C | 1.7% | 131.3hPa | 0V | 00:00:00 | 00:00:00 | 00:00:00 | |
| AUTORXJP | 2026-09-01 11:18:38 | 44.08003 | 6.57474 | 69° | 51km/h | 15670m | -30.0m/s | -57.6°C | 0.9% | 114.1hPa | 0V | 00:00:00 | 00:00:00 | 00:00:00 | |
| AUTORXJP | 2026-09-01 11:18:06 | 44.07915 | 6.56957 | 91° | 38km/h | 16620m | -31.8m/s | -59.0°C | 0.5% | 97.7hPa | 0V | 00:00:00 | 00:00:00 | 00:00:00 | |
| AUTORXJP | 2026-09-01 11:17:35 | 44.07868 | 6.56517 | 95° | 35km/h | 17660m | -35.3m/s | -56.7°C | 0.3% | 82.2hPa | 0V | 00:00:00 | 00:00:00 | 00:00:00 | |
| AUTORXJP | 2026-09-01 11:17:04 | 44.07806 | 6.56257 | 83° | 31km/h | 18849m | -37.1m/s | -57.3°C | 0.1% | 67.6hPa | 0V | 00:00:00 | 00:00:00 | 00:00:00 | |
| AUTORXJP | 2026-09-01 11:16:33 | 44.07828 | 6.56083 | 49° | 2km/h | 20096m | -40.8m/s | -54.0°C | 0.0% | 54.9hPa | 0V | 00:00:00 | 00:00:00 | 00:00:00 | |
| AUTORXJP | 2026-09-01 11:16:02 | 44.07789 | 6.56118 | 350° | 26km/h | 21477m | -45.4m/s | -53.0°C | 0.0% | 43.6hPa | 0V | 00:00:00 | 00:00:00 | 00:00:00 | |
| AUTORXJP | 2026-09-01 11:15:31 | 44.07781 | 6.56168 | 296° | 24km/h | 22878m | -40.1m/s | -52.4°C | 0.0% | 34.6hPa | 0V | 00:00:00 | 00:00:00 | 00:00:00 | |
| AUTORXJP | 2026-09-01 11:15:00 | 44.07764 | 6.56205 | 220° | 11km/h | 24382m | -42.0m/s | -50.8°C | 0.1% | 26.7hPa | 0V | 00:00:00 | 00:00:00 | 00:00:00 | |
| AUTORXJP | 2026-09-01 11:14:29 | 44.07699 | 6.56278 | 357° | 7km/h | 25878m | -49.0m/s | -48.0°C | 0.2% | 20.5hPa | 0V | 00:00:00 | 00:00:00 | 00:00:00 | |
| AUTORXJP | 2026-09-01 11:13:27 | 44.07531 | 6.56279 | 10° | 7km/h | 29122m | -47.0m/s | -44.5°C | 0.5% | 11.4hPa | 0V | 00:00:00 | 00:00:00 | 00:00:00 | |
| AUTORXJP | 2026-09-01 11:12:56 | 44.07493 | 6.56354 | 236° | 5km/h | 30945m | -62.5m/s | -40.2°C | 0.7% | 7.8hPa | 0V | 00:00:00 | 00:00:00 | 00:00:00 | |
| AUTORXJP | 2026-09-01 11:12:25 | 44.07418 | 6.56459 | 310° | 16km/h | 32978m | -66.3m/s | -35.6°C | 1.0% | 5.0hPa | 0V | 00:00:00 | 00:00:00 | 00:00:00 | |
| AUTORXJP | 2026-09-01 11:11:54 | 44.07279 | 6.56594 | 327° | 40km/h | 34520m | 6.9m/s | -33.9°C | 1.1% | 3.5hPa | 0V | 00:00:00 | 00:00:00 | 00:00:00 | |
| AUTORXJP | 2026-09-01 11:11:22 | 44.07154 | 6.56853 | 334° | 49km/h | 34349m | 5.0m/s | -34.7°C | 1.1% | 3.7hPa | 0V | 00:00:00 | 00:00:00 | 00:00:00 | |
| AUTORXJP | 2026-09-01 11:10:51 | 44.07029 | 6.57111 | 309° | 51km/h | 34175m | 8.1m/s | -35.8°C | 1.2% | 3.9hPa | 0V | 00:00:00 | 00:00:00 | 00:00:00 | |
| AUTORXJP | 2026-09-01 11:10:20 | 44.06897 | 6.57320 | 355° | 35km/h | 33999m | 3.6m/s | -35.8°C | 1.1% | 4.0hPa | 0V | 00:00:00 | 00:00:00 | 00:00:00 | |
| AUTORXJP | 2026-09-01 11:09:49 | 44.06750 | 6.57492 | 7° | 44km/h | 33823m | 6.7m/s | -34.9°C | 1.1% | 4.2hPa | 0V | 00:00:00 | 00:00:00 | 00:00:00 | |
| AUTORXJP | 2026-09-01 11:09:18 | 44.06649 | 6.57632 | 356° | 20km/h | 33656m | 5.6m/s | -35.9°C | 1.2% | 4.4hPa | 0V | 00:00:00 | 00:00:00 | 00:00:00 | |
| AUTORXJP | 2026-09-01 11:08:47 | 44.06548 | 6.57736 | 153° | 22km/h | 33478m | 3.8m/s | -35.9°C | 1.1% | 4.6hPa | 0V | 00:00:00 | 00:00:00 | 00:00:00 | |
| AUTORXJP | 2026-09-01 11:08:16 | 44.06531 | 6.57900 | 160° | 31km/h | 33295m | 3.3m/s | -36.8°C | 1.0% | 4.8hPa | 0V | 00:00:00 | 00:00:00 | 00:00:00 | |
| AUTORXJP | 2026-09-01 11:07:45 | 44.06509 | 6.58095 | 302° | 35km/h | 33139m | 3.2m/s | -37.0°C | 1.0% | 5.0hPa | 0V | 00:00:00 | 00:00:00 | 00:00:00 | |
| AUTORXJP | 2026-09-01 11:07:14 | 44.06427 | 6.58256 | 332° | 51km/h | 32963m | 3.6m/s | -36.6°C | 1.1% | 5.2hPa | 0V | 00:00:00 | 00:00:00 | 00:00:00 | |
| AUTORXJP | 2026-09-01 11:06:43 | 44.06408 | 6.58358 | 344° | 5km/h | 32799m | 6.5m/s | -38.0°C | 1.0% | 5.4hPa | 0V | 00:00:00 | 00:00:00 | 00:00:00 | |
| AUTORXJP | 2026-09-01 11:06:12 | 44.06397 | 6.58392 | 301° | 37km/h | 32620m | 4.8m/s | -38.4°C | 1.0% | 5.6hPa | 0V | 00:00:00 | 00:00:00 | 00:00:00 | |
| AUTORXJP | 2026-09-01 11:05:41 | 44.06329 | 6.58402 | 339° | 37km/h | 32433m | 8.9m/s | -38.2°C | 1.1% | 5.9hPa | 0V | 00:00:00 | 00:00:00 | 00:00:00 | |
| AUTORXJP | 2026-09-01 11:05:10 | 44.06187 | 6.58451 | 301° | 16km/h | 32244m | 4.2m/s | -38.3°C | 1.1% | 6.1hPa | 0V | 00:00:00 | 00:00:00 | 00:00:00 | |
| AUTORXJP | 2026-09-01 11:04:38 | 44.06012 | 6.58440 | 280° | 46km/h | 32048m | 5.4m/s | -38.9°C | 1.1% | 6.4hPa | 0V | 00:00:00 | 00:00:00 | 00:00:00 | |
| AUTORXJP | 2026-09-01 11:04:07 | 44.05904 | 6.58430 | 309° | 29km/h | 31850m | 7.2m/s | -39.7°C | 1.1% | 6.7hPa | 0V | 00:00:00 | 00:00:00 | 00:00:00 | |
| AUTORXJP | 2026-09-01 11:03:36 | 44.05700 | 6.58400 | 334° | 37km/h | 31666m | 8.1m/s | -39.4°C | 1.0% | 7.0hPa | 0V | 00:00:00 | 00:00:00 | 00:00:00 | |
| AUTORXJP | 2026-09-01 11:03:05 | 44.05479 | 6.58556 | 59° | 11km/h | 31483m | 3.1m/s | -40.3°C | 1.2% | 7.2hPa | 0V | 00:00:00 | 00:00:00 | 00:00:00 | |
| AUTORXJP | 2026-09-01 11:02:34 | 44.05368 | 6.58772 | 119° | 18km/h | 31302m | 7.2m/s | -39.3°C | 1.2% | 7.5hPa | 0V | 00:00:00 | 00:00:00 | 00:00:00 | |
| AUTORXJP | 2026-09-01 11:02:03 | 44.05398 | 6.58934 | 176° | 24km/h | 31128m | 7.4m/s | -40.4°C | 1.1% | 7.8hPa | 0V | 00:00:00 | 00:00:00 | 00:00:00 | |
| AUTORXJP | 2026-09-01 11:01:32 | 44.05505 | 6.58985 | 129° | 20km/h | 30958m | 7.5m/s | -40.6°C | 1.0% | 8.1hPa | 0V | 00:00:00 | 00:00:00 | 00:00:00 | |
| AUTORXJP | 2026-09-01 11:01:01 | 44.05555 | 6.58911 | 351° | 7km/h | 30780m | 6.8m/s | -42.5°C | 1.0% | 8.4hPa | 0V | 00:00:00 | 00:00:00 | 00:00:00 | |
| AUTORXJP | 2026-09-01 11:00:30 | 44.05410 | 6.58944 | 327° | 20km/h | 30599m | 5.5m/s | -43.6°C | 0.9% | 8.7hPa | 0V | 00:00:00 | 00:00:00 | 00:00:00 | |
| AUTORXJP | 2026-09-01 10:59:59 | 44.05230 | 6.59006 | 41° | 16km/h | 30419m | 4.9m/s | -43.2°C | 1.0% | 9.0hPa | 0V | 00:00:00 | 00:00:00 | 00:00:00 | |
| AUTORXJP | 2026-09-01 10:59:28 | 44.05070 | 6.59132 | 0° | 24km/h | 30232m | 5.5m/s | -42.4°C | 1.0% | 9.3hPa | 0V | 00:00:00 | 00:00:00 | 00:00:00 | |
| AUTORXJP | 2026-09-01 10:58:57 | 44.04988 | 6.59415 | 316° | 24km/h | 30045m | 5.0m/s | -42.8°C | 0.9% | 9.7hPa | 0V | 00:00:00 | 00:00:00 | 00:00:00 | |
| AUTORXJP | 2026-09-01 10:58:26 | 44.05014 | 6.59593 | 294° | 13km/h | 29862m | 5.6m/s | -42.5°C | 1.0% | 10.1hPa | 0V | 00:00:00 | 00:00:00 | 00:00:00 | |
| AUTORXJP | 2026-09-01 10:57:54 | 44.05035 | 6.59646 | 227° | 16km/h | 29668m | 6.6m/s | -43.5°C | 1.0% | 10.4hPa | 0V | 00:00:00 | 00:00:00 | 00:00:00 | |
| AUTORXJP | 2026-09-01 10:57:23 | 44.05072 | 6.59665 | 180° | 24km/h | 29480m | 6.6m/s | -43.3°C | 0.9% | 10.8hPa | 0V | 00:00:00 | 00:00:00 | 00:00:00 | |
| AUTORXJP | 2026-09-01 10:56:52 | 44.05053 | 6.59598 | 143° | 29km/h | 29292m | 5.2m/s | -44.7°C | 0.9% | 11.2hPa | 0V | 00:00:00 | 00:00:00 | 00:00:00 | |
| AUTORXJP | 2026-09-01 10:56:22 | 44.05005 | 6.59536 | 79° | 29km/h | 29105m | 5.4m/s | -44.3°C | 1.0% | 11.7hPa | 0V | 00:00:00 | 00:00:00 | 00:00:00 | |
| AUTORXJP | 2026-09-01 10:55:51 | 44.04968 | 6.59607 | 47° | 16km/h | 28920m | 5.1m/s | -44.0°C | 1.1% | 12.1hPa | 0V | 00:00:00 | 00:00:00 | 00:00:00 | |
| AUTORXJP | 2026-09-01 10:55:19 | 44.04954 | 6.59692 | 336° | 18km/h | 28739m | 5.1m/s | -43.7°C | 1.1% | 12.5hPa | 0V | 00:00:00 | 00:00:00 | 00:00:00 | |
| AUTORXJP | 2026-09-01 10:54:48 | 44.04939 | 6.59710 | 301° | 9km/h | 28558m | 6.6m/s | -44.2°C | 1.1% | 12.9hPa | 0V | 00:00:00 | 00:00:00 | 00:00:00 | |
| AUTORXJP | 2026-09-01 10:54:17 | 44.04934 | 6.59681 | 210° | 11km/h | 28377m | 6.5m/s | -44.7°C | 1.0% | 13.3hPa | 0V | 00:00:00 | 00:00:00 | 00:00:00 | |
| AUTORXJP | 2026-09-01 10:53:46 | 44.04955 | 6.59600 | 156° | 27km/h | 28200m | 5.4m/s | -43.7°C | 1.1% | 13.8hPa | 0V | 00:00:00 | 00:00:00 | 00:00:00 | |
| AUTORXJP | 2026-09-01 10:53:15 | 44.04923 | 6.59524 | 93° | 31km/h | 28021m | 4.3m/s | -45.4°C | 1.0% | 14.2hPa | 0V | 00:00:00 | 00:00:00 | 00:00:00 | |
| AUTORXJP | 2026-09-01 10:52:44 | 44.04768 | 6.59403 | 52° | 29km/h | 27843m | 5.1m/s | -45.7°C | 1.0% | 14.7hPa | 0V | 00:00:00 | 00:00:00 | 00:00:00 | |
| AUTORXJP | 2026-09-01 10:52:13 | 44.04598 | 6.59409 | 327° | 26km/h | 27656m | 6.0m/s | -46.2°C | 1.1% | 15.2hPa | 0V | 00:00:00 | 00:00:00 | 00:00:00 | |
| AUTORXJP | 2026-09-01 10:51:42 | 44.04564 | 6.59504 | 267° | 18km/h | 27485m | 7.2m/s | -45.8°C | 1.1% | 15.7hPa | 0V | 00:00:00 | 00:00:00 | 00:00:00 | |
| AUTORXJP | 2026-09-01 10:51:10 | 44.04561 | 6.59618 | 3° | 5km/h | 27307m | 6.2m/s | -45.5°C | 1.1% | 16.2hPa | 0V | 00:00:00 | 00:00:00 | 00:00:00 | |
| AUTORXJP | 2026-09-01 10:50:39 | 44.04502 | 6.59627 | 300° | 24km/h | 27114m | 5.5m/s | -46.3°C | 1.0% | 16.8hPa | 0V | 00:00:00 | 00:00:00 | 00:00:00 | |
| AUTORXJP | 2026-09-01 10:50:08 | 44.04387 | 6.59555 | 310° | 24km/h | 26942m | 7.6m/s | -46.8°C | 1.1% | 17.3hPa | 0V | 00:00:00 | 00:00:00 | 00:00:00 | |
| AUTORXJP | 2026-09-01 10:49:37 | 44.04169 | 6.59628 | 311° | 44km/h | 26760m | 5.5m/s | -47.7°C | 1.1% | 17.9hPa | 0V | 00:00:00 | 00:00:00 | 00:00:00 | |
| AUTORXJP | 2026-09-01 10:49:06 | 44.03992 | 6.59800 | 283° | 29km/h | 26578m | 4.8m/s | -48.1°C | 1.2% | 18.5hPa | 0V | 00:00:00 | 00:00:00 | 00:00:00 | |
| AUTORXJP | 2026-09-01 10:48:35 | 44.03966 | 6.59885 | 165° | 7km/h | 26401m | 6.8m/s | -48.4°C | 1.1% | 19.0hPa | 0V | 00:00:00 | 00:00:00 | 00:00:00 | |
| AUTORXJP | 2026-09-01 10:48:04 | 44.03902 | 6.59982 | 24° | 22km/h | 26219m | 6.2m/s | -48.0°C | 1.2% | 19.6hPa | 0V | 00:00:00 | 00:00:00 | 00:00:00 | |
| AUTORXJP | 2026-09-01 10:47:33 | 44.03799 | 6.60077 | 45° | 9km/h | 26044m | 5.3m/s | -48.2°C | 1.2% | 20.3hPa | 0V | 00:00:00 | 00:00:00 | 00:00:00 | |
| AUTORXJP | 2026-09-01 10:47:02 | 44.03733 | 6.60075 | 327° | 27km/h | 25874m | 4.7m/s | -47.7°C | 1.3% | 20.9hPa | 0V | 00:00:00 | 00:00:00 | 00:00:00 | |
| AUTORXJP | 2026-09-01 10:46:31 | 44.03665 | 6.60079 | 314° | 15km/h | 25703m | 6.1m/s | -48.9°C | 1.1% | 21.5hPa | 0V | 00:00:00 | 00:00:00 | 00:00:00 | |
| AUTORXJP | 2026-09-01 10:46:00 | 44.03589 | 6.60126 | 111° | 16km/h | 25533m | 6.6m/s | -48.6°C | 1.0% | 22.2hPa | 0V | 00:00:00 | 00:00:00 | 00:00:00 | |
| AUTORXJP | 2026-09-01 10:45:29 | 44.03501 | 6.60067 | 28° | 16km/h | 25358m | 6.2m/s | -49.8°C | 1.0% | 22.9hPa | 0V | 00:00:00 | 00:00:00 | 00:00:00 | |
| AUTORXJP | 2026-09-01 10:44:57 | 44.03350 | 6.60143 | 305° | 35km/h | 25183m | 5.8m/s | -49.8°C | 1.0% | 23.6hPa | 0V | 00:00:00 | 00:00:00 | 00:00:00 | |
| AUTORXJP | 2026-09-01 10:44:26 | 44.03251 | 6.60410 | 319° | 18km/h | 25002m | 4.2m/s | -51.1°C | 1.1% | 24.3hPa | 0V | 00:00:00 | 00:00:00 | 00:00:00 | |
| AUTORXJP | 2026-09-01 10:43:55 | 44.03277 | 6.60648 | 240° | 35km/h | 24831m | 5.6m/s | -50.3°C | 1.0% | 25.0hPa | 0V | 00:00:00 | 00:00:00 | 00:00:00 | |
| AUTORXJP | 2026-09-01 10:43:24 | 44.03363 | 6.60822 | 208° | 18km/h | 24636m | 7.0m/s | -49.9°C | 1.1% | 25.9hPa | 0V | 00:00:00 | 00:00:00 | 00:00:00 | |
| AUTORXJP | 2026-09-01 10:42:53 | 44.03451 | 6.60913 | 182° | 18km/h | 24485m | 5.3m/s | -50.7°C | 1.2% | 26.6hPa | 0V | 00:00:00 | 00:00:00 | 00:00:00 | |
| AUTORXJP | 2026-09-01 10:42:22 | 44.03508 | 6.60948 | 263° | 11km/h | 24316m | 5.0m/s | -50.2°C | 1.1% | 27.3hPa | 0V | 00:00:00 | 00:00:00 | 00:00:00 | |
| AUTORXJP | 2026-09-01 10:41:51 | 44.03420 | 6.60955 | 357° | 20km/h | 24149m | 4.6m/s | -51.9°C | 1.2% | 28.1hPa | 0V | 00:00:00 | 00:00:00 | 00:00:00 | |
| AUTORXJP | 2026-09-01 10:41:20 | 44.03415 | 6.61041 | 212° | 13km/h | 23984m | 5.0m/s | -52.6°C | 1.1% | 28.9hPa | 0V | 00:00:00 | 00:00:00 | 00:00:00 | |
| AUTORXJP | 2026-09-01 10:40:49 | 44.03383 | 6.61134 | 274° | 24km/h | 23819m | 5.2m/s | -52.6°C | 1.2% | 29.8hPa | 0V | 00:00:00 | 00:00:00 | 00:00:00 | |
| AUTORXJP | 2026-09-01 10:39:47 | 44.03442 | 6.61252 | 12° | 5km/h | 23460m | 6.2m/s | -52.0°C | 1.1% | 31.6hPa | 0V | 00:00:00 | 00:00:00 | 00:00:00 | |
| AUTORXJP | 2026-09-01 10:39:16 | 44.03360 | 6.61298 | 6° | 15km/h | 23306m | 6.2m/s | -52.7°C | 1.2% | 32.5hPa | 0V | 00:00:00 | 00:00:00 | 00:00:00 | |
| AUTORXJP | 2026-09-01 10:38:45 | 44.03284 | 6.61377 | 304° | 26km/h | 23132m | 5.0m/s | -52.4°C | 1.3% | 33.5hPa | 0V | 00:00:00 | 00:00:00 | 00:00:00 | |
| AUTORXJP | 2026-09-01 10:38:14 | 44.03244 | 6.61567 | 274° | 16km/h | 22973m | 6.2m/s | -52.7°C | 1.3% | 34.4hPa | 0V | 00:00:00 | 00:00:00 | 00:00:00 | |
| AUTORXJP | 2026-09-01 10:37:42 | 44.03294 | 6.61815 | 243° | 18km/h | 22807m | 5.0m/s | -52.5°C | 1.3% | 35.4hPa | 0V | 00:00:00 | 00:00:00 | 00:00:00 | |
| AUTORXJP | 2026-09-01 10:37:11 | 44.03425 | 6.61904 | 166° | 35km/h | 22665m | 4.3m/s | -51.9°C | 1.5% | 36.2hPa | 0V | 00:00:00 | 00:00:00 | 00:00:00 | |
| AUTORXJP | 2026-09-01 10:36:41 | 44.03649 | 6.61848 | 154° | 16km/h | 22498m | 5.4m/s | -51.3°C | 1.6% | 37.2hPa | 0V | 00:00:00 | 00:00:00 | 00:00:00 | |
| AUTORXJP | 2026-09-01 10:36:09 | 44.03785 | 6.61716 | 160° | 18km/h | 22343m | 4.8m/s | -52.6°C | 1.5% | 38.2hPa | 0V | 00:00:00 | 00:00:00 | 00:00:00 | |
| AUTORXJP | 2026-09-01 10:35:38 | 44.03827 | 6.61567 | 74° | 11km/h | 22184m | 5.8m/s | -53.7°C | 1.5% | 39.2hPa | 0V | 00:00:00 | 00:00:00 | 00:00:00 | |
| AUTORXJP | 2026-09-01 10:34:36 | 44.03646 | 6.61301 | 63° | 5km/h | 21853m | 4.0m/s | -54.2°C | 1.4% | 41.5hPa | 0V | 00:00:00 | 00:00:00 | 00:00:00 | |
| AUTORXJP | 2026-09-01 10:34:05 | 44.03453 | 6.61328 | 341° | 40km/h | 21694m | 3.0m/s | -54.6°C | 1.6% | 42.6hPa | 0V | 00:00:00 | 00:00:00 | 00:00:00 | |
| AUTORXJP | 2026-09-01 10:33:03 | 44.03300 | 6.61540 | 103° | 5km/h | 21380m | 4.5m/s | -55.3°C | 1.3% | 44.9hPa | 0V | 00:00:00 | 00:00:00 | 00:00:00 | |
| AUTORXJP | 2026-09-01 10:32:32 | 44.03287 | 6.61462 | 147° | 11km/h | 21223m | 3.7m/s | -54.7°C | 1.4% | 46.0hPa | 0V | 00:00:00 | 00:00:00 | 00:00:00 | |
| AUTORXJP | 2026-09-01 10:32:01 | 44.03202 | 6.61419 | 335° | 27km/h | 21062m | 4.8m/s | -54.8°C | 1.5% | 47.3hPa | 0V | 00:00:00 | 00:00:00 | 00:00:00 | |
| AUTORXJP | 2026-09-01 10:31:30 | 44.03091 | 6.61446 | 58° | 11km/h | 20902m | 4.6m/s | -54.1°C | 1.7% | 48.6hPa | 0V | 00:00:00 | 00:00:00 | 00:00:00 | |
| AUTORXJP | 2026-09-01 10:30:59 | 44.03057 | 6.61440 | 71° | 7km/h | 20745m | 5.5m/s | -53.8°C | 1.6% | 49.9hPa | 0V | 00:00:00 | 00:00:00 | 00:00:00 | |
| AUTORXJP | 2026-09-01 10:30:28 | 44.03051 | 6.61426 | 270° | 2km/h | 20583m | 5.9m/s | -54.1°C | 1.7% | 51.2hPa | 0V | 00:00:00 | 00:00:00 | 00:00:00 | |
| AUTORXJP | 2026-09-01 10:29:56 | 44.03056 | 6.61416 | 288° | 7km/h | 20429m | 3.6m/s | -54.0°C | 1.7% | 52.5hPa | 0V | 00:00:00 | 00:00:00 | 00:00:00 | |
| AUTORXJP | 2026-09-01 10:29:25 | 44.03089 | 6.61410 | 337° | 9km/h | 20274m | 4.5m/s | -53.7°C | 1.8% | 53.9hPa | 0V | 00:00:00 | 00:00:00 | 00:00:00 | |
| AUTORXJP | 2026-09-01 10:28:54 | 44.03115 | 6.61375 | 99° | 5km/h | 20129m | 5.6m/s | -53.4°C | 1.9% | 55.2hPa | 0V | 00:00:00 | 00:00:00 | 00:00:00 | |
| AUTORXJP | 2026-09-01 10:28:23 | 44.03139 | 6.61319 | 96° | 9km/h | 19972m | 5.0m/s | -54.4°C | 1.8% | 56.6hPa | 0V | 00:00:00 | 00:00:00 | 00:00:00 | |
| AUTORXJP | 2026-09-01 10:27:52 | 44.03126 | 6.61093 | 86° | 40km/h | 19829m | 5.3m/s | -55.8°C | 1.9% | 58.0hPa | 0V | 00:00:00 | 00:00:00 | 00:00:00 | |
| AUTORXJP | 2026-09-01 10:27:21 | 44.03093 | 6.60728 | 77° | 29km/h | 19678m | 6.2m/s | -55.3°C | 2.0% | 59.4hPa | 0V | 00:00:00 | 00:00:00 | 00:00:00 | |
| AUTORXJP | 2026-09-01 10:26:50 | 44.03019 | 6.60469 | 53° | 11km/h | 19524m | 3.3m/s | -55.4°C | 2.1% | 60.9hPa | 0V | 00:00:00 | 00:00:00 | 00:00:00 | |
| AUTORXJP | 2026-09-01 10:26:19 | 44.03012 | 6.60255 | 63° | 13km/h | 19369m | 4.5m/s | -55.5°C | 2.2% | 62.5hPa | 0V | 00:00:00 | 00:00:00 | 00:00:00 | |
| AUTORXJP | 2026-09-01 10:25:48 | 44.02983 | 6.60135 | 41° | 4km/h | 19217m | 4.5m/s | -56.5°C | 2.1% | 64.1hPa | 0V | 00:00:00 | 00:00:00 | 00:00:00 | |
| AUTORXJP | 2026-09-01 10:25:17 | 44.03051 | 6.59982 | 107° | 27km/h | 19060m | 4.6m/s | -56.5°C | 2.0% | 65.8hPa | 0V | 00:00:00 | 00:00:00 | 00:00:00 | |
| AUTORXJP | 2026-09-01 10:24:46 | 44.03112 | 6.59622 | 102° | 37km/h | 18903m | 4.7m/s | -57.0°C | 2.1% | 67.5hPa | 0V | 00:00:00 | 00:00:00 | 00:00:00 | |
| AUTORXJP | 2026-09-01 10:24:15 | 44.03083 | 6.59176 | 74° | 37km/h | 18749m | 5.0m/s | -57.8°C | 2.2% | 69.2hPa | 0V | 00:00:00 | 00:00:00 | 00:00:00 | |
| AUTORXJP | 2026-09-01 10:23:43 | 44.02940 | 6.58850 | 55° | 29km/h | 18589m | 6.2m/s | -57.2°C | 2.2% | 71.1hPa | 0V | 00:00:00 | 00:00:00 | 00:00:00 | |
| AUTORXJP | 2026-09-01 10:23:12 | 44.02787 | 6.58644 | 68° | 18km/h | 18436m | 5.3m/s | -56.0°C | 2.5% | 72.9hPa | 0V | 00:00:00 | 00:00:00 | 00:00:00 | |
| AUTORXJP | 2026-09-01 10:22:41 | 44.02683 | 6.58471 | 75° | 15km/h | 18277m | 5.3m/s | -55.5°C | 2.7% | 74.8hPa | 0V | 00:00:00 | 00:00:00 | 00:00:00 | |
| AUTORXJP | 2026-09-01 10:22:10 | 44.02689 | 6.58378 | 210° | 9km/h | 18133m | 4.4m/s | -54.7°C | 2.8% | 76.6hPa | 0V | 00:00:00 | 00:00:00 | 00:00:00 | |
| AUTORXJP | 2026-09-01 10:21:39 | 44.02753 | 6.58246 | 122° | 24km/h | 17967m | 6.0m/s | -55.8°C | 2.9% | 78.7hPa | 0V | 00:00:00 | 00:00:00 | 00:00:00 | |
| AUTORXJP | 2026-09-01 10:21:08 | 44.02793 | 6.57830 | 93° | 44km/h | 17807m | 5.7m/s | -57.3°C | 3.0% | 80.8hPa | 0V | 00:00:00 | 00:00:00 | 00:00:00 | |
| AUTORXJP | 2026-09-01 10:20:37 | 44.02838 | 6.57366 | 92° | 38km/h | 17660m | 5.1m/s | -56.6°C | 3.2% | 82.8hPa | 0V | 00:00:00 | 00:00:00 | 00:00:00 | |
| AUTORXJP | 2026-09-01 10:20:06 | 44.02802 | 6.56910 | 95° | 31km/h | 17520m | 4.0m/s | -57.5°C | 3.2% | 84.7hPa | 0V | 00:00:00 | 00:00:00 | 00:00:00 | |
| AUTORXJP | 2026-09-01 10:19:35 | 44.02720 | 6.56486 | 73° | 37km/h | 17374m | 5.7m/s | -58.3°C | 3.3% | 86.7hPa | 0V | 00:00:00 | 00:00:00 | 00:00:00 | |
| AUTORXJP | 2026-09-01 10:19:04 | 44.02633 | 6.56133 | 93° | 29km/h | 17228m | 3.5m/s | -59.2°C | 3.1% | 88.8hPa | 0V | 00:00:00 | 00:00:00 | 00:00:00 | |
| AUTORXJP | 2026-09-01 10:18:33 | 44.02568 | 6.55791 | 75° | 29km/h | 17071m | 4.9m/s | -59.5°C | 3.4% | 91.2hPa | 0V | 00:00:00 | 00:00:00 | 00:00:00 | |
| AUTORXJP | 2026-09-01 10:18:02 | 44.02507 | 6.55463 | 82° | 38km/h | 16922m | 3.7m/s | -58.9°C | 3.5% | 93.4hPa | 0V | 00:00:00 | 00:00:00 | 00:00:00 | |
| AUTORXJP | 2026-09-01 10:17:31 | 44.02484 | 6.55092 | 84° | 38km/h | 16770m | 5.3m/s | -59.0°C | 3.7% | 95.8hPa | 0V | 00:00:00 | 00:00:00 | 00:00:00 | |
| AUTORXJP | 2026-09-01 10:16:59 | 44.02497 | 6.54709 | 93° | 38km/h | 16620m | 4.3m/s | -58.8°C | 3.6% | 98.2hPa | 0V | 00:00:00 | 00:00:00 | 00:00:00 | |
| AUTORXJP | 2026-09-01 10:16:29 | 44.02542 | 6.54285 | 106° | 42km/h | 16458m | 4.5m/s | -58.5°C | 3.8% | 100.8hPa | 0V | 00:00:00 | 00:00:00 | 00:00:00 | |
| AUTORXJP | 2026-09-01 10:15:57 | 44.02588 | 6.53742 | 82° | 47km/h | 16286m | 5.5m/s | -58.5°C | 4.0% | 103.7hPa | 0V | 00:00:00 | 00:00:00 | 00:00:00 | |
| AUTORXJP | 2026-09-01 10:15:26 | 44.02538 | 6.53230 | 75° | 47km/h | 16145m | 4.8m/s | -57.9°C | 4.1% | 106.1hPa | 0V | 00:00:00 | 00:00:00 | 00:00:00 | |
| AUTORXJP | 2026-09-01 10:14:55 | 44.02439 | 6.52730 | 82° | 47km/h | 15999m | 4.0m/s | -57.9°C | 4.2% | 108.7hPa | 0V | 00:00:00 | 00:00:00 | 00:00:00 | |
| AUTORXJP | 2026-09-01 10:14:24 | 44.02299 | 6.52194 | 63° | 55km/h | 15854m | 3.6m/s | -58.3°C | 4.4% | 111.3hPa | 0V | 00:00:00 | 00:00:00 | 00:00:00 | |
| AUTORXJP | 2026-09-01 10:13:53 | 44.02172 | 6.51681 | 66° | 55km/h | 15719m | 4.6m/s | -58.0°C | 4.8% | 113.7hPa | 0V | 00:00:00 | 00:00:00 | 00:00:00 | |
| AUTORXJP | 2026-09-01 10:13:22 | 44.02004 | 6.51114 | 64° | 60km/h | 15572m | 4.9m/s | -57.4°C | 5.2% | 116.5hPa | 0V | 00:00:00 | 00:00:00 | 00:00:00 | |
| AUTORXJP | 2026-09-01 10:12:20 | 44.01725 | 6.49832 | 68° | 71km/h | 15280m | 6.5m/s | -57.9°C | 5.7% | 122.2hPa | 0V | 00:00:00 | 00:00:00 | 00:00:00 | |
| AUTORXJP | 2026-09-01 10:11:49 | 44.01592 | 6.49131 | 77° | 71km/h | 15128m | 6.3m/s | -57.9°C | 6.0% | 125.2hPa | 0V | 00:00:00 | 00:00:00 | 00:00:00 | |
| AUTORXJP | 2026-09-01 10:11:18 | 44.01443 | 6.48360 | 67° | 77km/h | 14987m | 3.6m/s | -58.0°C | 6.3% | 128.1hPa | 0V | 00:00:00 | 00:00:00 | 00:00:00 | |
| AUTORXJP | 2026-09-01 10:10:47 | 44.01313 | 6.47492 | 73° | 80km/h | 14840m | 5.6m/s | -57.8°C | 6.4% | 131.2hPa | 0V | 00:00:00 | 00:00:00 | 00:00:00 | |
| AUTORXJP | 2026-09-01 10:10:15 | 44.01172 | 6.46622 | 70° | 86km/h | 14700m | 3.4m/s | -58.1°C | 6.4% | 134.2hPa | 0V | 00:00:00 | 00:00:00 | 00:00:00 | |
| AUTORXJP | 2026-09-01 10:09:44 | 44.00969 | 6.45634 | 70° | 89km/h | 14547m | 5.3m/s | -57.5°C | 7.1% | 137.6hPa | 0V | 00:00:00 | 00:00:00 | 00:00:00 | |
| AUTORXJP | 2026-09-01 10:09:13 | 44.00787 | 6.44700 | 73° | 97km/h | 14409m | 4.3m/s | -57.3°C | 7.4% | 140.7hPa | 0V | 00:00:00 | 00:00:00 | 00:00:00 | |
| AUTORXJP | 2026-09-01 10:08:42 | 44.00603 | 6.43770 | 77° | 88km/h | 14281m | 6.0m/s | -57.8°C | 7.6% | 143.6hPa | 0V | 00:00:00 | 00:00:00 | 00:00:00 | |
| AUTORXJP | 2026-09-01 10:08:11 | 44.00435 | 6.42820 | 68° | 89km/h | 14139m | 4.0m/s | -58.1°C | 8.2% | 147.0hPa | 0V | 00:00:00 | 00:00:00 | 00:00:00 | |
| AUTORXJP | 2026-09-01 10:07:40 | 44.00236 | 6.41805 | 74° | 91km/h | 14004m | 3.4m/s | -58.5°C | 8.8% | 150.3hPa | 0V | 00:00:00 | 00:00:00 | 00:00:00 | |
| AUTORXJP | 2026-09-01 10:07:09 | 44.00046 | 6.40748 | 73° | 106km/h | 13866m | 5.1m/s | -58.4°C | 10.0% | 153.6hPa | 0V | 00:00:00 | 00:00:00 | 00:00:00 | |
| AUTORXJP | 2026-09-01 10:06:38 | 43.99871 | 6.39650 | 75° | 102km/h | 13709m | 8.0m/s | -57.3°C | 11.5% | 157.6hPa | 0V | 00:00:00 | 00:00:00 | 00:00:00 | |
| AUTORXJP | 2026-09-01 10:06:07 | 43.99634 | 6.38492 | 74° | 111km/h | 13557m | 5.5m/s | -57.3°C | 13.4% | 161.5hPa | 0V | 00:00:00 | 00:00:00 | 00:00:00 | |
| AUTORXJP | 2026-09-01 10:05:05 | 43.99225 | 6.36152 | 77° | 110km/h | 13296m | 3.5m/s | -57.1°C | 21.7% | 168.4hPa | 0V | 00:00:00 | 00:00:00 | 00:00:00 | |
| AUTORXJP | 2026-09-01 10:04:34 | 43.99014 | 6.34932 | 77° | 128km/h | 13166m | 4.9m/s | -58.8°C | 25.8% | 172.0hPa | 0V | 00:00:00 | 00:00:00 | 00:00:00 | |
| AUTORXJP | 2026-09-01 10:04:03 | 43.98788 | 6.33629 | 77° | 122km/h | 13041m | 4.9m/s | -59.1°C | 28.0% | 175.5hPa | 0V | 00:00:00 | 00:00:00 | 00:00:00 | |
| AUTORXJP | 2026-09-01 10:03:31 | 43.98565 | 6.32250 | 76° | 119km/h | 12898m | 3.4m/s | -59.8°C | 28.6% | 179.7hPa | 0V | 00:00:00 | 00:00:00 | 00:00:00 | |
| AUTORXJP | 2026-09-01 10:03:00 | 43.98315 | 6.30986 | 72° | 119km/h | 12759m | 4.0m/s | -59.1°C | 28.1% | 183.8hPa | 0V | 00:00:00 | 00:00:00 | 00:00:00 | |
| AUTORXJP | 2026-09-01 10:02:29 | 43.98034 | 6.29648 | 70° | 137km/h | 12608m | 4.2m/s | -58.0°C | 28.5% | 188.3hPa | 0V | 00:00:00 | 00:00:00 | 00:00:00 | |
| AUTORXJP | 2026-09-01 10:01:58 | 43.97729 | 6.28294 | 71° | 126km/h | 12465m | 5.3m/s | -57.1°C | 28.5% | 192.7hPa | 0V | 00:00:00 | 00:00:00 | 00:00:00 | |
| AUTORXJP | 2026-09-01 10:01:27 | 43.97409 | 6.26978 | 73° | 130km/h | 12343m | 3.4m/s | -56.3°C | 31.0% | 196.5hPa | 0V | 00:00:00 | 00:00:00 | 00:00:00 | |
| AUTORXJP | 2026-09-01 10:00:56 | 43.97196 | 6.25733 | 84° | 124km/h | 12209m | 2.7m/s | -56.0°C | 32.6% | 200.8hPa | 0V | 00:00:00 | 00:00:00 | 00:00:00 | |
| AUTORXJP | 2026-09-01 10:00:25 | 43.96971 | 6.24516 | 71° | 104km/h | 12055m | 3.4m/s | -55.7°C | 34.0% | 205.8hPa | 0V | 00:00:00 | 00:00:00 | 00:00:00 | |
| AUTORXJP | 2026-09-01 09:59:54 | 43.96743 | 6.23334 | 77° | 115km/h | 11925m | 4.2m/s | -54.9°C | 34.8% | 210.1hPa | 0V | 00:00:00 | 00:00:00 | 00:00:00 | |
| AUTORXJP | 2026-09-01 09:59:23 | 43.96546 | 6.22164 | 79° | 106km/h | 11795m | 5.6m/s | -53.9°C | 37.4% | 214.4hPa | 0V | 00:00:00 | 00:00:00 | 00:00:00 | |
| AUTORXJP | 2026-09-01 09:58:52 | 43.96389 | 6.20986 | 78° | 104km/h | 11656m | 4.3m/s | -53.7°C | 37.5% | 219.3hPa | 0V | 00:00:00 | 00:00:00 | 00:00:00 | |
| AUTORXJP | 2026-09-01 09:58:21 | 43.96218 | 6.19856 | 80° | 108km/h | 11515m | 4.0m/s | -52.8°C | 38.8% | 224.2hPa | 0V | 00:00:00 | 00:00:00 | 00:00:00 | |
| AUTORXJP | 2026-09-01 09:57:49 | 43.96060 | 6.18756 | 80° | 95km/h | 11379m | 4.0m/s | -52.0°C | 38.9% | 229.0hPa | 0V | 00:00:00 | 00:00:00 | 00:00:00 | |
| AUTORXJP | 2026-09-01 09:57:18 | 43.95949 | 6.17675 | 81° | 106km/h | 11240m | 3.9m/s | -51.1°C | 39.5% | 234.0hPa | 0V | 00:00:00 | 00:00:00 | 00:00:00 | |
| AUTORXJP | 2026-09-01 09:56:47 | 43.95861 | 6.16557 | 84° | 97km/h | 11111m | 4.7m/s | -50.4°C | 38.6% | 238.8hPa | 0V | 00:00:00 | 00:00:00 | 00:00:00 | |
| AUTORXJP | 2026-09-01 09:56:16 | 43.95778 | 6.15494 | 88° | 97km/h | 10979m | 3.6m/s | -49.6°C | 37.3% | 243.8hPa | 0V | 00:00:00 | 00:00:00 | 00:00:00 | |
| AUTORXJP | 2026-09-01 09:55:45 | 43.95719 | 6.14485 | 83° | 100km/h | 10846m | 4.8m/s | -48.5°C | 38.9% | 248.8hPa | 0V | 00:00:00 | 00:00:00 | 00:00:00 | |
| AUTORXJP | 2026-09-01 09:55:14 | 43.95639 | 6.13432 | 85° | 97km/h | 10708m | 4.2m/s | -47.2°C | 46.0% | 254.2hPa | 0V | 00:00:00 | 00:00:00 | 00:00:00 | |
| AUTORXJP | 2026-09-01 09:54:43 | 43.95546 | 6.12322 | 81° | 106km/h | 10581m | 4.2m/s | -46.1°C | 44.9% | 259.2hPa | 0V | 00:00:00 | 00:00:00 | 00:00:00 | |
| AUTORXJP | 2026-09-01 09:54:12 | 43.95455 | 6.11284 | 84° | 91km/h | 10445m | 3.0m/s | -45.0°C | 44.3% | 264.6hPa | 0V | 00:00:00 | 00:00:00 | 00:00:00 | |
| AUTORXJP | 2026-09-01 09:53:10 | 43.95290 | 6.09198 | 86° | 86km/h | 10182m | 3.9m/s | -43.0°C | 51.0% | 275.3hPa | 0V | 00:00:00 | 00:00:00 | 00:00:00 | |
| AUTORXJP | 2026-09-01 09:52:39 | 43.95202 | 6.08184 | 82° | 93km/h | 10034m | 3.7m/s | -41.8°C | 50.5% | 281.5hPa | 0V | 00:00:00 | 00:00:00 | 00:00:00 | |
| AUTORXJP | 2026-09-01 09:52:08 | 43.95107 | 6.07133 | 82° | 99km/h | 9900m | 4.7m/s | -40.8°C | 57.1% | 287.1hPa | 0V | 00:00:00 | 00:00:00 | 00:00:00 | |
| AUTORXJP | 2026-09-01 09:51:37 | 43.94989 | 6.06128 | 73° | 89km/h | 9762m | 5.7m/s | -39.7°C | 56.4% | 293.1hPa | 0V | 00:00:00 | 00:00:00 | 00:00:00 | |
| AUTORXJP | 2026-09-01 09:51:06 | 43.94879 | 6.05159 | 79° | 89km/h | 9621m | 3.9m/s | -38.7°C | 54.9% | 299.2hPa | 0V | 00:00:00 | 00:00:00 | 00:00:00 | |
| AUTORXJP | 2026-09-01 09:50:35 | 43.94758 | 6.04117 | 82° | 99km/h | 9478m | 4.5m/s | -37.5°C | 45.6% | 305.7hPa | 0V | 00:00:00 | 00:00:00 | 00:00:00 | |
| AUTORXJP | 2026-09-01 09:50:03 | 43.94637 | 6.03144 | 78° | 89km/h | 9336m | 4.4m/s | -36.3°C | 31.4% | 312.1hPa | 0V | 00:00:00 | 00:00:00 | 00:00:00 | |
| AUTORXJP | 2026-09-01 09:49:32 | 43.94522 | 6.02175 | 86° | 73km/h | 9191m | 5.8m/s | -35.4°C | 34.3% | 318.7hPa | 0V | 00:00:00 | 00:00:00 | 00:00:00 | |
| AUTORXJP | 2026-09-01 09:49:01 | 43.94416 | 6.01201 | 81° | 84km/h | 9041m | 3.3m/s | -34.0°C | 32.3% | 325.8hPa | 0V | 00:00:00 | 00:00:00 | 00:00:00 | |
| AUTORXJP | 2026-09-01 09:48:30 | 43.94273 | 6.00162 | 83° | 84km/h | 8897m | 3.5m/s | -33.0°C | 35.0% | 332.5hPa | 0V | 00:00:00 | 00:00:00 | 00:00:00 | |
| AUTORXJP | 2026-09-01 09:47:59 | 43.94140 | 5.99223 | 85° | 86km/h | 8772m | 2.8m/s | -32.4°C | 46.2% | 338.5hPa | 0V | 00:00:00 | 00:00:00 | 00:00:00 | |
| AUTORXJP | 2026-09-01 09:47:28 | 43.94000 | 5.98243 | 78° | 82km/h | 8652m | 2.9m/s | -31.6°C | 46.8% | 344.4hPa | 0V | 00:00:00 | 00:00:00 | 00:00:00 | |
| AUTORXJP | 2026-09-01 09:46:57 | 43.93843 | 5.97294 | 74° | 88km/h | 8518m | 2.6m/s | -30.1°C | 44.7% | 351.1hPa | 0V | 00:00:00 | 00:00:00 | 00:00:00 | |
| AUTORXJP | 2026-09-01 09:46:26 | 43.93712 | 5.96362 | 77° | 86km/h | 8394m | 6.3m/s | -29.0°C | 41.8% | 357.2hPa | 0V | 00:00:00 | 00:00:00 | 00:00:00 | |
| AUTORXJP | 2026-09-01 09:45:55 | 43.93563 | 5.95434 | 71° | 82km/h | 8256m | 3.3m/s | -27.8°C | 38.7% | 364.3hPa | 0V | 00:00:00 | 00:00:00 | 00:00:00 | |
| AUTORXJP | 2026-09-01 09:45:24 | 43.93432 | 5.94471 | 76° | 89km/h | 8100m | 4.1m/s | -26.4°C | 36.0% | 372.4hPa | 0V | 00:00:00 | 00:00:00 | 00:00:00 | |
| AUTORXJP | 2026-09-01 09:44:53 | 43.93278 | 5.93513 | 75° | 97km/h | 7972m | 3.8m/s | -25.2°C | 33.5% | 379.1hPa | 0V | 00:00:00 | 00:00:00 | 00:00:00 | |
| AUTORXJP | 2026-09-01 09:44:22 | 43.93180 | 5.92572 | 80° | 93km/h | 7835m | 5.0m/s | -24.3°C | 36.5% | 386.3hPa | 0V | 00:00:00 | 00:00:00 | 00:00:00 | |
| AUTORXJP | 2026-09-01 09:43:50 | 43.93078 | 5.91629 | 82° | 78km/h | 7707m | 2.5m/s | -23.1°C | 37.9% | 393.3hPa | 0V | 00:00:00 | 00:00:00 | 00:00:00 | |
| AUTORXJP | 2026-09-01 09:43:19 | 43.92970 | 5.90698 | 79° | 86km/h | 7544m | 4.1m/s | -21.9°C | 35.6% | 402.2hPa | 0V | 00:00:00 | 00:00:00 | 00:00:00 | |
| AUTORXJP | 2026-09-01 09:42:48 | 43.92877 | 5.89839 | 75° | 71km/h | 7419m | 4.0m/s | -21.0°C | 35.2% | 409.1hPa | 0V | 00:00:00 | 00:00:00 | 00:00:00 | |
| AUTORXJP | 2026-09-01 09:42:17 | 43.92800 | 5.89007 | 82° | 66km/h | 7290m | 3.4m/s | -19.7°C | 31.5% | 416.4hPa | 0V | 00:00:00 | 00:00:00 | 00:00:00 | |
| AUTORXJP | 2026-09-01 09:41:46 | 43.92716 | 5.88252 | 75° | 68km/h | 7147m | 3.5m/s | -19.1°C | 34.2% | 424.6hPa | 0V | 00:00:00 | 00:00:00 | 00:00:00 | |
| AUTORXJP | 2026-09-01 09:41:15 | 43.92651 | 5.87519 | 88° | 69km/h | 6997m | 4.2m/s | -18.2°C | 41.2% | 433.3hPa | 0V | 00:00:00 | 00:00:00 | 00:00:00 | |
| AUTORXJP | 2026-09-01 09:40:44 | 43.92574 | 5.86825 | 80° | 60km/h | 6866m | 4.2m/s | -17.3°C | 46.3% | 440.9hPa | 0V | 00:00:00 | 00:00:00 | 00:00:00 | |
| AUTORXJP | 2026-09-01 09:40:13 | 43.92522 | 5.86118 | 90° | 42km/h | 6741m | 4.0m/s | -16.5°C | 51.8% | 448.6hPa | 0V | 00:00:00 | 00:00:00 | 00:00:00 |